Du har inga inställningar för hoppväder.nu

Hoppväder.nu

Senast uppdaterat 05:25

UTC-tid

2020-01-29 kl. 04:25


Sol och måne

Solen går upp 8:12 och går ner 16:02 (beräknade cirkatider)
Nästa fullmåne blir om 11 dagar (2020-02-09)

METAR

ESOW (Västerås)
(35 minuter sedan)
ESOW 290350Z AUTO 11006KT 9000 DZ SCT007/// BKN010/// BKN014/// 03/02 Q0987 REDZ=



ESSA (Arlanda)
(35 minuter sedan)
ESSA 290350Z 10008KT 9999 -RA OVC006 02/02 Q0988 RWY 01L WET OR WATER PATCHES 51-100 PCT BA GOOD RWY 08 WET OR WATER PATCHES 51-100 PCT BA GOOD RWY 01R WET OR WATER PATCHES 51-100 PCT BA GOOD TEMPO 4000 DZRA BKN004=



ESKN (Skavsta)
(35 minuter sedan)
ESKN 290350Z 18003KT 9999 BKN018 03/03 Q0986 RWY 26 WET OR WATER PATCHES 51-100 PCT 2 MM BA GOOD=



ESOE (Örebro)
(35 minuter sedan)
ESOE 290350Z AUTO 00000KT 2100 BR FEW004/// SCT007/// BKN009/// 03/02 Q0986=



ESSD (Borlänge)
(35 minuter sedan)
ESSD 290350Z AUTO 09008KT 8000 -SN VV006 01/00 Q0987=



TAF

ESOW (Västerås)
ESOW



ESSA (Arlanda)
(295 minuter sedan)
ESSA 282330Z 2900/2924 12009KT 9999 -RA OVC006 TEMPO 2900/2905 2000 DZRA BR BKN004 PROB40 2905/2909 0300 FG VV003 BECMG 2909/2911 SCT006 BKN015 TEMPO 2911/2924 3000 RA BKN007=



ESKN (Skavsta)
(98 minuter sedan)
ESKN AMD 290247Z 2902/2924 13009KT 9999 -RA SCT005 BKN014 BECMG 2902/2904 2000 BR SCT003 BKN015 TEMPO 2904/2911 0200 FG VV002 TEMPO 2911/2924 5000 RA BKN003=



ESOE (Örebro)
(115 minuter sedan)
ESOE 290230Z 2903/2912 09005KT 9999 -RA SCT006 OVC010 TEMPO 2903/2910 2000 DZRA BR BKN004 BECMG 2906/2908 SCT020=



ESSD (Borlänge)
ESSD





Kodnycklar till TAF och METAR






LHP

(Västerås är område G2b i Södra delen)

Prognos är inte uppdaterad




Spotting

Hur fungerar spotthjälpen och Vindkartan?

Markvind är ca 0 m/s.



Vindkartan

Senast uppdaterad 05:25




All data kommer från LFV.se